Terminal Aerodrome Forecast
Issued by NWS Upton, NY

Home | Current Version | Previous Version | Text Only | Print | Product List | Glossary On
Versions: 1 2 3 4 5 6 7 8 9 10 11 12 13 14 15 16 17 18 19 20 21 22 23 24 25 26
000
FTUS41 KOKX 231400 AAA
TAFISP
TAF AMD
KISP 231431Z 2315/2412 22010KT P6SM SCT080 BKN100
     FM232200 20007KT P6SM SCT080 BKN120
     FM240400 16008KT P6SM BKN008
     FM240600 14014G24KT 2SM RA BR OVC005 WS020/16045KT
     FM240900 16019G31KT 2SM RA BR OVC004 WS020/18065KT=

USA.gov is the U.S. government's official web portal to all federal, state and local government web resources and services.